createdAt,value
2023-01-30T00:02:21.162Z,0.27
2023-01-30T00:05:46.468Z,0.22
2023-01-30T00:09:11.775Z,0.16
2023-01-30T00:12:37.054Z,0.16
2023-01-30T00:16:02.327Z,0.24
2023-01-30T00:19:27.602Z,0.31
2023-01-30T00:23:00.677Z,0.35
2023-01-30T00:26:18.242Z,0.37
2023-01-30T00:29:47.357Z,0.41
2023-01-30T00:33:08.730Z,0.43
2023-01-30T00:36:34.015Z,0.39
2023-01-30T00:39:59.272Z,0.36
2023-01-30T00:43:24.550Z,0.39
2023-01-30T00:46:49.823Z,0.37
2023-01-30T00:50:15.075Z,0.4
2023-01-30T00:53:40.347Z,0.43
2023-01-30T00:57:05.637Z,0.46
2023-01-30T01:00:30.922Z,0.45
2023-01-30T01:03:56.229Z,0.48
2023-01-30T01:07:22.128Z,0.51
2023-01-30T01:10:46.823Z,0.55
2023-01-30T01:14:12.117Z,0.64
2023-01-30T01:17:37.405Z,0.72
2023-01-30T01:21:02.702Z,0.72
2023-01-30T01:24:27.949Z,0.73
2023-01-30T01:27:53.210Z,0.74
2023-01-30T01:31:18.582Z,0.75
2023-01-30T01:34:43.759Z,0.75
2023-01-30T01:38:09.015Z,0.76
2023-01-30T01:41:34.304Z,0.79
2023-01-30T01:44:59.588Z,0.82
2023-01-30T01:48:24.853Z,0.8
2023-01-30T01:51:50.115Z,0.84
2023-01-30T01:55:15.378Z,0.9
2023-01-30T01:58:40.699Z,0.88
2023-01-30T02:02:05.990Z,0.91
2023-01-30T02:05:31.223Z,0.87
2023-01-30T02:08:56.529Z,0.81
2023-01-30T02:12:21.819Z,0.81
2023-01-30T02:15:47.083Z,0.87
2023-01-30T02:19:12.392Z,0.91
2023-01-30T02:22:37.633Z,0.94
2023-01-30T02:26:02.918Z,0.99
2023-01-30T02:29:28.188Z,1
2023-01-30T02:32:53.480Z,1.01
2023-01-30T02:36:18.756Z,0.96
2023-01-30T02:39:44.036Z,0.91
2023-01-30T02:43:09.279Z,0.86
2023-01-30T02:46:34.570Z,0.75
2023-01-30T02:49:59.870Z,0.75
2023-01-30T02:53:25.145Z,0.72
2023-01-30T02:56:50.421Z,0.68
2023-01-30T03:00:15.696Z,0.68
2023-01-30T03:03:40.984Z,0.63
2023-01-30T03:07:06.263Z,0.61
2023-01-30T03:10:31.560Z,0.64
2023-01-30T03:13:56.851Z,0.65
2023-01-30T03:17:22.104Z,0.64
2023-01-30T03:20:47.383Z,0.61
2023-01-30T03:24:12.650Z,0.61
2023-01-30T03:27:37.929Z,0.62
2023-01-30T03:31:03.334Z,0.69
2023-01-30T03:34:28.526Z,0.71
2023-01-30T03:37:53.796Z,0.75
2023-01-30T03:41:19.075Z,0.75
2023-01-30T03:44:44.427Z,0.77
2023-01-30T03:48:09.708Z,0.79
2023-01-30T03:51:34.962Z,0.77
2023-01-30T03:55:00.327Z,0.76
2023-01-30T03:58:25.610Z,0.77
2023-01-30T04:01:50.911Z,0.79
2023-01-30T04:05:16.575Z,0.76
2023-01-30T04:08:41.500Z,0.77
2023-01-30T04:12:06.815Z,0.79
2023-01-30T04:15:32.085Z,0.84
2023-01-30T04:18:57.415Z,0.85
2023-01-30T04:22:22.663Z,0.87
2023-01-30T04:25:47.916Z,0.93
2023-01-30T04:29:13.194Z,1.01
2023-01-30T04:32:38.477Z,1.09
2023-01-30T04:36:03.967Z,1.15
2023-01-30T04:39:29.229Z,1.14
2023-01-30T04:42:54.512Z,1.16
2023-01-30T04:46:19.790Z,1.19
2023-01-30T04:49:45.048Z,1.18
2023-01-30T04:53:10.305Z,1.1
2023-01-30T04:56:35.542Z,1.05
2023-01-30T05:00:02.749Z,1.09
2023-01-30T05:03:28.013Z,1.09
2023-01-30T05:06:53.247Z,1.14
2023-01-30T05:10:18.556Z,1.22
2023-01-30T05:13:43.757Z,1.25
2023-01-30T05:17:09.235Z,1.31
2023-01-30T05:20:34.423Z,1.38
2023-01-30T05:23:59.714Z,1.38
2023-01-30T05:27:29.483Z,1.43
2023-01-30T05:30:54.768Z,1.42
2023-01-30T05:34:20.037Z,1.39
2023-01-30T05:37:45.305Z,1.38
2023-01-30T05:41:10.597Z,1.37
2023-01-30T05:44:35.877Z,1.4
2023-01-30T05:48:01.719Z,1.44
2023-01-30T05:51:26.440Z,1.45
2023-01-30T05:54:51.755Z,1.51
2023-01-30T05:58:17.062Z,1.55
2023-01-30T06:01:42.373Z,1.54
2023-01-30T06:05:07.632Z,1.56
2023-01-30T06:08:32.960Z,1.55
2023-01-30T06:11:58.261Z,1.59
2023-01-30T06:15:23.571Z,1.87
2023-01-30T06:18:48.931Z,2.08
2023-01-30T06:22:14.194Z,2.07
2023-01-30T06:25:39.515Z,2.08
2023-01-30T06:29:04.929Z,2.13
2023-01-30T06:32:30.193Z,2.16
2023-01-30T06:35:55.483Z,2.16
2023-01-30T06:39:20.737Z,2.11
2023-01-30T06:42:46.021Z,2.07
2023-01-30T06:46:11.357Z,2.07
2023-01-30T06:49:36.617Z,2.03
2023-01-30T06:53:01.905Z,1.97
2023-01-30T06:56:27.219Z,1.97
2023-01-30T06:59:52.454Z,1.98
2023-01-30T07:03:18.194Z,1.98
2023-01-30T07:06:43.550Z,2.02
2023-01-30T07:10:09.270Z,2.08
2023-01-30T07:13:34.126Z,2.18
2023-01-30T07:16:59.436Z,2.25
2023-01-30T07:20:24.744Z,2.27
2023-01-30T07:23:49.986Z,2.28
2023-01-30T07:27:15.356Z,2.36
2023-01-30T07:30:40.628Z,2.44
2023-01-30T07:34:05.885Z,2.42
2023-01-30T07:37:31.149Z,2.43
2023-01-30T07:40:56.459Z,2.46
2023-01-30T07:44:21.742Z,2.52
2023-01-30T07:47:47.030Z,2.57
2023-01-30T07:51:12.353Z,2.59
2023-01-30T07:54:37.651Z,2.65
2023-01-30T07:58:02.928Z,2.68
2023-01-30T08:01:28.315Z,2.73
2023-01-30T08:04:53.586Z,2.77
2023-01-30T08:08:18.786Z,2.84
2023-01-30T08:11:44.098Z,2.93
2023-01-30T08:15:09.370Z,3.02
2023-01-30T08:18:34.698Z,3.14
2023-01-30T08:21:59.951Z,3.17
2023-01-30T08:25:25.265Z,3.18
2023-01-30T08:28:50.668Z,3.26
2023-01-30T08:32:16.100Z,3.36
2023-01-30T08:35:41.270Z,3.36
2023-01-30T08:39:06.557Z,3.41
2023-01-30T08:42:31.885Z,3.43
2023-01-30T08:45:57.199Z,3.37
2023-01-30T08:49:22.491Z,3.29
2023-01-30T08:52:47.850Z,3.4
2023-01-30T08:56:13.004Z,3.5
2023-01-30T08:59:38.309Z,3.63
2023-01-30T09:03:03.598Z,3.71
2023-01-30T09:06:28.851Z,3.76
2023-01-30T09:09:54.133Z,3.85
2023-01-30T09:13:19.367Z,3.91
2023-01-30T09:16:44.734Z,3.98
2023-01-30T09:20:09.941Z,4.02
2023-01-30T09:23:38.013Z,4.12
2023-01-30T09:27:03.302Z,4.16
2023-01-30T09:30:28.581Z,4.14
2023-01-30T09:33:53.795Z,4.11
2023-01-30T09:37:19.048Z,4.1
2023-01-30T09:40:44.276Z,4.13
2023-01-30T09:44:09.551Z,4.18
2023-01-30T09:47:34.795Z,4.28
2023-01-30T09:51:00.086Z,4.41
2023-01-30T09:54:25.341Z,4.48
2023-01-30T09:57:50.633Z,4.69
2023-01-30T10:01:15.891Z,4.93
2023-01-30T10:04:48.805Z,5.01
2023-01-30T10:08:06.392Z,5.1
2023-01-30T10:11:31.672Z,5.23
2023-01-30T10:14:56.927Z,5.46
2023-01-30T10:18:22.212Z,5.62
2023-01-30T10:21:47.420Z,5.75
2023-01-30T10:25:12.672Z,5.61
2023-01-30T10:28:37.906Z,5.65
2023-01-30T10:32:03.161Z,6.09
2023-01-30T10:35:28.401Z,6.54
2023-01-30T10:38:53.640Z,6.66
2023-01-30T10:42:18.939Z,6.51
2023-01-30T10:45:44.214Z,6.23
2023-01-30T10:49:09.819Z,5.9
2023-01-30T10:52:35.090Z,5.73
2023-01-30T10:56:00.338Z,5.49
2023-01-30T10:59:25.571Z,5.28
2023-01-30T11:02:51.845Z,5.12
2023-01-30T11:06:16.093Z,5.03
2023-01-30T11:09:41.359Z,4.97
2023-01-30T11:13:06.664Z,4.85
2023-01-30T11:16:31.910Z,4.79
2023-01-30T11:19:57.153Z,4.7
2023-01-30T11:23:25.617Z,4.61
2023-01-30T11:26:51.195Z,4.58
2023-01-30T11:30:16.951Z,4.55
2023-01-30T11:33:41.702Z,4.52
2023-01-30T11:37:06.956Z,4.5
2023-01-30T11:40:32.201Z,4.55
2023-01-30T11:43:57.472Z,4.61
2023-01-30T11:47:22.692Z,4.62
2023-01-30T11:50:49.755Z,4.62
2023-01-30T11:54:13.228Z,4.6
2023-01-30T11:57:38.475Z,4.62
2023-01-30T12:01:03.756Z,4.65
2023-01-30T12:04:29.039Z,4.63
2023-01-30T12:07:54.276Z,4.58
2023-01-30T12:11:19.541Z,4.62
2023-01-30T12:14:45.913Z,4.69
2023-01-30T12:18:10.079Z,4.72
2023-01-30T12:21:35.310Z,4.77
2023-01-30T12:25:00.559Z,4.8
2023-01-30T12:28:25.896Z,4.79
2023-01-30T12:31:53.614Z,4.75
2023-01-30T12:35:19.216Z,4.76
2023-01-30T12:38:44.106Z,4.78
2023-01-30T12:42:09.396Z,4.89
2023-01-30T12:45:34.950Z,4.97
2023-01-30T12:49:10.839Z,5.11
2023-01-30T12:52:25.566Z,5.39
2023-01-30T12:55:50.824Z,5.68
2023-01-30T12:59:16.077Z,6.01
2023-01-30T13:02:41.401Z,6.34
2023-01-30T13:06:06.638Z,6.3
2023-01-30T13:09:31.940Z,6.32
2023-01-30T13:12:57.237Z,6.35
2023-01-30T13:16:22.535Z,6.38
2023-01-30T13:19:47.783Z,6.38
2023-01-30T13:23:14.430Z,6.28
2023-01-30T13:26:39.880Z,6.18
2023-01-30T13:30:05.005Z,6.09
2023-01-30T13:33:30.263Z,5.92
2023-01-30T13:36:55.517Z,5.71
2023-01-30T13:40:20.962Z,5.59
2023-01-30T13:43:46.085Z,5.54
2023-01-30T13:47:11.310Z,5.49
2023-01-30T13:50:36.588Z,5.4
2023-01-30T13:54:01.938Z,5.46
2023-01-30T13:57:27.182Z,5.44
2023-01-30T14:00:52.503Z,5.43
2023-01-30T14:04:17.700Z,5.49
2023-01-30T14:07:43.160Z,5.52
2023-01-30T14:11:08.412Z,5.53
2023-01-30T14:14:33.676Z,5.56
2023-01-30T14:17:58.992Z,5.57
2023-01-30T14:21:24.234Z,5.57
2023-01-30T14:24:49.536Z,5.59
2023-01-30T14:28:14.844Z,5.56
2023-01-30T15:04:14.120Z,3.08
2023-01-30T15:07:39.414Z,4.07
2023-01-30T15:11:04.667Z,4.35
2023-01-30T15:14:29.920Z,4.61
2023-01-30T15:18:06.036Z,4.77
2023-01-30T15:21:20.434Z,4.93
2023-01-30T15:24:45.711Z,5.01
2023-01-30T15:28:10.979Z,5.03
2023-01-30T15:31:36.341Z,5.06
2023-01-30T15:35:02.179Z,5.1
2023-01-30T15:38:27.484Z,5.12
2023-01-30T15:41:52.688Z,5.14
2023-01-30T15:45:17.929Z,5.16
2023-01-30T15:48:43.171Z,5.17
2023-01-30T15:52:08.409Z,5.17
2023-01-30T15:55:33.729Z,5.17
2023-01-30T15:58:58.955Z,5.16
2023-01-30T16:02:24.215Z,5.16
2023-01-30T16:05:50.057Z,5.2
2023-01-30T16:09:15.322Z,5.23
2023-01-30T16:12:40.818Z,5.2
2023-01-30T16:16:06.604Z,5.21
2023-01-30T16:19:31.857Z,5.19
2023-01-30T16:22:57.115Z,5.18
2023-01-30T16:26:22.510Z,5.17
2023-01-30T16:29:47.688Z,5.18
2023-01-30T16:33:12.979Z,5.19
2023-01-30T16:36:38.232Z,5.2
2023-01-30T16:40:03.503Z,5.21
2023-01-30T16:43:28.820Z,5.24
2023-01-30T16:46:54.093Z,5.25
2023-01-30T16:50:19.835Z,5.25
2023-01-30T16:53:44.563Z,5.28
2023-01-30T16:57:09.786Z,5.3
2023-01-30T17:00:35.568Z,5.29
2023-01-30T17:04:03.502Z,5.27
2023-01-30T17:07:29.764Z,5.25
2023-01-30T17:10:55.123Z,5.24
2023-01-30T17:14:20.407Z,5.24
2023-01-30T17:17:45.702Z,5.19
2023-01-30T17:21:11.033Z,5.19
2023-01-30T17:24:36.318Z,5.22
2023-01-30T17:28:01.604Z,5.19
2023-01-30T17:31:26.890Z,5.15
2023-01-30T17:34:52.127Z,5.15
2023-01-30T17:38:18.644Z,5.15
2023-01-30T17:41:43.898Z,5.16
2023-01-30T17:45:09.166Z,5.19
2023-01-30T17:48:34.560Z,5.16
2023-01-30T17:51:59.854Z,5.09
2023-01-30T17:55:25.236Z,5.05
2023-01-30T17:58:50.562Z,5.02
2023-01-30T18:02:15.851Z,4.95
2023-01-30T18:05:41.141Z,4.93
2023-01-30T18:09:06.505Z,4.95
2023-01-30T18:12:31.822Z,4.96
2023-01-30T18:15:57.031Z,4.91
2023-01-30T18:19:22.273Z,4.91
2023-01-30T18:22:47.574Z,4.89
2023-01-30T18:26:13.018Z,4.88
2023-01-30T18:29:38.163Z,4.9
2023-01-30T18:33:03.481Z,4.93
2023-01-30T18:36:28.865Z,4.95
2023-01-30T18:39:54.223Z,4.99
2023-01-30T18:43:19.742Z,5.01
2023-01-30T18:46:44.840Z,5.05
2023-01-30T18:50:10.090Z,5.06
2023-01-30T18:53:35.399Z,5.07
2023-01-30T18:57:00.671Z,5.07
2023-01-30T19:00:25.948Z,5.06
2023-01-30T19:03:51.265Z,5.05
2023-01-30T19:07:16.604Z,5.08
2023-01-30T19:10:41.924Z,5.07
2023-01-30T19:14:07.252Z,5.11
2023-01-30T19:17:32.526Z,5.17
2023-01-30T19:20:57.840Z,5.26
2023-01-30T19:24:23.529Z,5.26
2023-01-30T19:27:48.433Z,5.23
2023-01-30T19:31:13.858Z,5.22
2023-01-30T19:34:39.066Z,5.24
2023-01-30T19:38:04.419Z,5.26
2023-01-30T19:41:29.749Z,5.29
2023-01-30T19:44:55.072Z,5.3
2023-01-30T19:48:20.389Z,5.35
2023-01-30T19:51:45.629Z,5.37
2023-01-30T19:55:10.949Z,5.38
2023-01-30T19:58:36.177Z,5.37
2023-01-30T20:02:01.522Z,5.41
2023-01-30T20:05:26.736Z,5.46
2023-01-30T20:08:52.073Z,5.5
2023-01-30T20:12:17.465Z,5.5
2023-01-30T20:15:42.718Z,5.5
2023-01-30T20:19:07.990Z,5.48
2023-01-30T20:22:33.252Z,5.46
2023-01-30T20:25:58.553Z,5.46
2023-01-30T20:29:23.845Z,5.41
2023-01-30T20:32:49.108Z,5.42
2023-01-30T20:36:14.373Z,5.45
2023-01-30T20:39:39.814Z,5.44
2023-01-30T20:43:05.028Z,5.42
2023-01-30T20:46:30.363Z,5.42
2023-01-30T20:49:55.613Z,5.45
2023-01-30T20:53:20.947Z,5.44
2023-01-30T20:56:46.298Z,5.42
2023-01-30T21:00:11.564Z,5.42
2023-01-30T21:03:37.081Z,5.47
2023-01-30T21:07:02.237Z,5.52
2023-01-30T21:10:27.565Z,5.52
2023-01-30T21:13:52.825Z,5.5
2023-01-30T21:17:18.143Z,5.51
2023-01-30T21:20:44.044Z,5.5
2023-01-30T21:24:09.394Z,5.48
2023-01-30T21:27:34.689Z,5.45
2023-01-30T21:31:00.411Z,5.4
2023-01-30T21:34:25.253Z,5.38
2023-01-30T21:37:50.516Z,5.35
2023-01-30T21:41:15.751Z,5.36
2023-01-30T21:44:41.017Z,5.37
2023-01-30T21:48:06.301Z,5.35
2023-01-30T21:51:31.552Z,5.34
2023-01-30T21:54:57.144Z,5.34
2023-01-30T21:58:22.115Z,5.29
2023-01-30T22:01:47.454Z,5.26
2023-01-30T22:05:12.767Z,5.27
2023-01-30T22:08:38.659Z,5.26
2023-01-30T22:12:03.460Z,5.27
2023-01-30T22:15:28.791Z,5.21
2023-01-30T22:18:54.515Z,5.17
2023-01-30T22:22:19.350Z,5.19
2023-01-30T22:25:44.629Z,5.19
2023-01-30T22:29:09.984Z,5.18
2023-01-30T22:32:35.386Z,5.14
2023-01-30T22:36:00.603Z,5.14
2023-01-30T22:39:26.036Z,5.14
2023-01-30T22:42:51.350Z,5.16
2023-01-30T22:46:16.684Z,5.17
2023-01-30T22:49:42.013Z,5.18
2023-01-30T22:53:07.260Z,5.17
2023-01-30T22:56:32.522Z,5.2
2023-01-30T22:59:57.855Z,5.21
2023-01-30T23:03:23.277Z,5.22
2023-01-30T23:06:48.516Z,5.21
2023-01-30T23:10:13.824Z,5.24
2023-01-30T23:13:39.140Z,5.22
2023-01-30T23:17:04.427Z,5.22
2023-01-30T23:20:29.897Z,5.19
2023-01-30T23:23:55.134Z,5.15
2023-01-30T23:27:20.471Z,5.13
2023-01-30T23:30:45.769Z,5.12
2023-01-30T23:34:11.135Z,5.14
2023-01-30T23:37:36.621Z,5.14
2023-01-30T23:41:01.791Z,5.14
2023-01-30T23:44:27.089Z,5.19
2023-01-30T23:47:52.452Z,5.21
2023-01-30T23:51:17.729Z,5.22
2023-01-30T23:54:43.080Z,5.19
2023-01-30T23:58:08.343Z,5.18
